Terminal Aerodrome Forecast
Issued by NWS Grand Forks, ND

Home | Current Version | Previous Version | Graphics & Text | Print | Product List | Glossary On
Versions: 1 2 3 4 5 6 7 8 9 10 11 12 13 14 15 16 17 18 19 20 21 22 23 24 25
457
FTUS43 KFGF 212229 AAA
TAFGFK
TAF AMD
KGFK 212229Z 2122/2218 32007KT 2SM BR BKN004
     FM220000 02003KT 1/2SM FG OVC008
      TEMPO 2203/2206 -RASN
     FM221200 01008KT 1 1/2SM BR BKN015 OVC035
     FM221600 01012G20KT 4SM BR BKN020=

USA.gov is the U.S. government's official web portal to all federal, state and local government web resources and services.